Time;durP1;ratioP1;P1;durP2;ratioP2;P2;SDS_P1;SDS_P2;PMS_P1;PMS_P2;Temp;Humidity;BMP_temperature;BMP_pressure;BME280_temperature;BME280_humidity;BME280_pressure;Samples;Min_cycle;Max_cycle;Signal;HPM_P1;HPM_P2
2022/04/22 00:01:23;;;;;;;14.53;10.80;;;10.80;49.70;;;;;;4996721;28;20398;-73
2022/04/22 00:03:48;;;;;;;15.40;10.93;;;10.90;48.30;;;;;;4998375;28;20799;-73
2022/04/22 00:06:14;;;;;;;16.93;11.10;;;10.90;48.50;;;;;;5005669;28;20515;-74
2022/04/22 00:08:40;;;;;;;15.37;11.07;;;10.80;48.60;;;;;;5002447;28;20411;-74
2022/04/22 00:13:50;;;;;;;15.05;10.90;;;10.80;50.50;;;;;;4994278;28;20782;-76
2022/04/22 00:16:17;;;;;;;16.85;11.13;;;10.80;50.20;;;;;;5009855;28;20443;-74
2022/04/22 00:18:43;;;;;;;15.80;11.40;;;10.70;50.40;;;;;;5007128;28;20883;-74
2022/04/22 00:21:09;;;;;;;17.50;11.60;;;10.60;51.10;;;;;;4992061;28;20514;-74
2022/04/22 00:23:34;;;;;;;15.40;11.50;;;10.60;51.20;;;;;;4999331;28;20408;-74
2022/04/22 00:26:00;;;;;;;14.77;11.60;;;10.30;53.70;;;;;;5006656;28;20397;-73
2022/04/22 00:28:25;;;;;;;15.33;11.40;;;10.10;57.40;;;;;;4988870;28;20425;-73
2022/04/22 00:30:51;;;;;;;17.50;11.43;;;10.20;55.60;;;;;;4988816;28;20457;-73
2022/04/22 00:33:17;;;;;;;14.50;11.00;;;10.20;56.20;;;;;;4997025;28;20399;-74
2022/04/22 00:35:44;;;;;;;15.50;12.10;;;10.30;55.50;;;;;;4993885;28;20489;-73
2022/04/22 00:38:10;;;;;;;16.75;11.60;;;10.40;54.20;;;;;;4995492;28;20923;-73
2022/04/22 00:40:36;;;;;;;16.30;11.10;;;10.40;53.80;;;;;;5000889;28;20400;-74
2022/04/22 00:43:18;;;;;;;17.60;11.50;;;10.40;53.10;;;;;;4993742;28;20398;-74
2022/04/22 00:45:45;;;;;;;19.75;11.55;;;10.40;53.00;;;;;;4994133;28;20398;-73
2022/04/22 00:48:10;;;;;;;17.58;11.30;;;10.40;54.00;;;;;;4998417;28;20982;-73
2022/04/22 00:50:38;;;;;;;21.13;11.10;;;10.30;54.60;;;;;;5012616;28;20400;-73
2022/04/22 00:53:04;;;;;;;20.95;11.40;;;10.30;54.80;;;;;;5013821;28;20450;-73
2022/04/22 00:55:30;;;;;;;18.45;11.45;;;10.30;54.50;;;;;;4997395;28;20394;-73
2022/04/22 00:57:57;;;;;;;20.95;12.20;;;10.20;55.10;;;;;;4993606;28;20480;-73
2022/04/22 01:00:22;;;;;;;16.08;11.50;;;10.30;55.70;;;;;;4995469;28;20817;-75
2022/04/22 01:02:48;;;;;;;18.50;12.03;;;10.20;56.80;;;;;;4997600;28;20398;-75
2022/04/22 01:10:42;;;;;;;14.83;11.93;;;10.10;57.70;;;;;;4993826;28;20890;-74
2022/04/22 01:13:09;;;;;;;18.25;11.75;;;10.10;58.40;;;;;;4995250;28;20402;-74
2022/04/22 01:15:35;;;;;;;15.77;11.68;;;10.10;58.00;;;;;;4998296;28;20396;-73
2022/04/22 01:18:31;;;;;;;18.92;11.68;;;10.10;58.20;;;;;;4996921;28;20422;-75
2022/04/22 01:21:01;;;;;;;18.65;12.38;;;10.00;58.70;;;;;;5003950;28;20398;-74
2022/04/22 01:23:27;;;;;;;18.33;11.95;;;10.10;58.00;;;;;;5010756;28;20397;-74
2022/04/22 01:25:53;;;;;;;18.40;13.20;;;9.90;59.00;;;;;;5012620;28;20401;-74
2022/04/22 01:28:20;;;;;;;19.90;12.15;;;9.90;59.10;;;;;;5000296;28;20419;-74
2022/04/22 01:30:45;;;;;;;21.52;12.80;;;9.90;60.20;;;;;;4993854;28;20453;-76
2022/04/22 01:33:11;;;;;;;20.17;13.10;;;9.80;61.10;;;;;;4998118;28;20912;-74
2022/04/22 01:35:37;;;;;;;18.37;12.87;;;9.90;59.80;;;;;;5007751;28;20417;-75
2022/04/22 01:38:02;;;;;;;18.67;12.80;;;9.80;61.60;;;;;;4997586;28;20398;-74
2022/04/22 01:40:28;;;;;;;17.77;12.70;;;9.80;61.20;;;;;;4999295;28;20501;-73
2022/04/22 01:42:55;;;;;;;20.03;11.60;;;9.70;62.10;;;;;;4997353;28;20421;-74
2022/04/22 01:45:21;;;;;;;18.88;12.93;;;9.80;62.30;;;;;;5004491;28;20402;-74
2022/04/22 01:47:47;;;;;;;18.23;12.60;;;9.70;62.60;;;;;;5002774;28;21067;-74
2022/04/22 01:50:12;;;;;;;16.43;12.30;;;9.70;62.50;;;;;;5008525;28;20445;-74
2022/04/22 01:52:40;;;;;;;16.13;11.90;;;9.70;62.30;;;;;;5001533;28;20411;-74
2022/04/22 01:55:06;;;;;;;17.60;12.07;;;9.70;62.30;;;;;;5010992;28;20432;-73
2022/04/22 01:57:32;;;;;;;17.42;12.50;;;9.70;63.00;;;;;;5010232;28;20406;-72
2022/04/22 01:59:59;;;;;;;18.20;12.30;;;9.80;62.20;;;;;;5004421;28;20425;-74
2022/04/22 02:02:24;;;;;;;16.50;11.85;;;9.80;61.60;;;;;;5010089;28;20420;-75
2022/04/22 02:04:50;;;;;;;16.58;11.98;;;9.80;61.20;;;;;;5006065;28;20411;-74
2022/04/22 02:07:16;;;;;;;17.55;12.65;;;9.70;62.40;;;;;;4999541;28;20768;-73
2022/04/22 02:09:41;;;;;;;17.15;12.07;;;9.60;64.00;;;;;;4996403;28;20428;-73
2022/04/22 02:12:08;;;;;;;20.27;13.20;;;9.60;62.90;;;;;;4996144;28;20806;-75
2022/04/22 02:14:33;;;;;;;19.07;12.83;;;9.70;62.80;;;;;;4999323;28;20552;-75
2022/04/22 02:16:59;;;;;;;18.63;11.95;;;9.60;63.60;;;;;;5002328;28;20506;-73
2022/04/22 02:19:25;;;;;;;19.70;12.80;;;9.60;64.00;;;;;;5003865;28;20908;-73
2022/04/22 02:21:51;;;;;;;18.37;12.63;;;9.60;63.20;;;;;;4994962;28;20402;-74
2022/04/22 02:24:17;;;;;;;18.95;12.70;;;9.70;62.40;;;;;;5006764;28;20483;-74
2022/04/22 02:29:27;;;;;;;17.67;12.57;;;9.70;62.60;;;;;;4997298;28;20403;-74
2022/04/22 02:31:53;;;;;;;20.38;12.90;;;9.60;63.00;;;;;;4998507;28;20773;-74
2022/04/22 02:34:23;;;;;;;20.67;12.70;;;9.60;63.00;;;;;;4995198;28;20455;-74
2022/04/22 02:36:50;;;;;;;18.83;13.75;;;9.60;63.50;;;;;;4996245;28;20435;-75
2022/04/22 02:39:16;;;;;;;22.33;13.80;;;9.60;63.40;;;;;;5007422;28;20397;-75
2022/04/22 02:47:10;;;;;;;21.65;14.10;;;9.60;63.90;;;;;;4996466;28;20504;-73
2022/04/22 02:49:36;;;;;;;19.77;13.83;;;9.60;64.30;;;;;;5005544;28;20394;-74
2022/04/22 02:52:02;;;;;;;23.73;14.00;;;9.60;64.10;;;;;;5005082;28;20394;-74
2022/04/22 02:54:31;;;;;;;18.75;14.10;;;9.60;64.50;;;;;;5004121;28;20402;-74
2022/04/22 02:56:57;;;;;;;17.50;13.15;;;9.60;64.80;;;;;;4999464;28;20406;-73
2022/04/22 02:59:23;;;;;;;21.88;13.50;;;9.60;64.60;;;;;;4995465;28;20399;-73
2022/04/22 03:01:49;;;;;;;22.53;14.33;;;9.50;64.80;;;;;;4992471;28;20961;-75
2022/04/22 03:04:15;;;;;;;21.75;13.38;;;9.50;64.90;;;;;;5006571;28;20891;-73
2022/04/22 03:06:41;;;;;;;21.45;14.00;;;9.50;65.30;;;;;;5010274;28;20397;-74
2022/04/22 03:09:07;;;;;;;19.13;13.95;;;9.40;65.30;;;;;;5010936;28;20901;-73
2022/04/22 03:11:34;;;;;;;20.90;14.13;;;9.40;66.30;;;;;;4995733;28;20467;-74
2022/04/22 03:14:00;;;;;;;24.70;14.85;;;9.30;66.90;;;;;;4997268;28;20405;-74
2022/04/22 03:16:27;;;;;;;25.52;15.50;;;9.30;67.00;;;;;;4999131;28;20410;-76
2022/04/22 03:18:53;;;;;;;21.33;15.05;;;9.40;67.60;;;;;;5001944;28;20424;-74
2022/04/22 03:21:19;;;;;;;23.48;14.90;;;9.30;66.70;;;;;;4995238;28;20830;-74
2022/04/22 03:23:45;;;;;;;23.27;14.97;;;9.30;67.10;;;;;;4994295;28;20493;-74
2022/04/22 03:26:11;;;;;;;24.73;15.60;;;9.30;67.10;;;;;;4995335;28;20398;-73
2022/04/22 03:28:36;;;;;;;22.02;15.60;;;9.30;67.20;;;;;;4992594;28;20421;-74
2022/04/22 03:31:02;;;;;;;23.33;15.70;;;9.30;67.50;;;;;;5001687;28;20418;-73
2022/04/22 03:33:27;;;;;;;23.90;15.82;;;9.20;68.20;;;;;;4999273;28;20397;-75
2022/04/22 03:35:53;;;;;;;23.40;15.77;;;9.20;68.30;;;;;;5012378;28;20424;-74
2022/04/22 03:38:20;;;;;;;25.55;17.15;;;9.20;68.40;;;;;;5003323;28;20426;-75
2022/04/22 03:40:47;;;;;;;25.63;16.95;;;9.20;69.20;;;;;;4993796;28;20452;-74
2022/04/22 03:43:13;;;;;;;28.27;16.80;;;9.20;69.40;;;;;;5010711;28;20389;-74
2022/04/22 03:45:39;;;;;;;30.40;17.88;;;9.20;69.60;;;;;;5009930;28;20434;-74
2022/04/22 03:48:08;;;;;;;30.17;18.40;;;9.10;70.50;;;;;;4998441;28;20467;-74
2022/04/22 03:50:36;;;;;;;27.63;17.60;;;9.20;71.30;;;;;;4999051;28;20429;-74
2022/04/22 03:53:02;;;;;;;28.38;17.95;;;9.10;71.60;;;;;;5005811;28;20391;-74
2022/04/22 03:55:28;;;;;;;30.08;18.83;;;9.20;71.10;;;;;;4995319;28;20883;-74
2022/04/22 03:58:12;;;;;;;28.50;18.60;;;9.20;70.80;;;;;;4990215;28;20400;-75
2022/04/22 04:00:39;;;;;;;29.75;19.40;;;9.10;71.90;;;;;;4996389;28;20419;-74
2022/04/22 04:03:09;;;;;;;35.42;19.42;;;9.20;72.50;;;;;;4992957;28;20897;-74
2022/04/22 04:05:35;;;;;;;34.70;19.95;;;9.20;71.40;;;;;;5000866;28;20412;-74
2022/04/22 04:08:01;;;;;;;33.05;19.92;;;9.20;72.00;;;;;;4996857;28;20448;-74
2022/04/22 04:15:57;;;;;;;34.00;20.77;;;9.20;71.90;;;;;;4993962;28;20403;-74
2022/04/22 04:18:24;;;;;;;33.33;21.13;;;9.20;71.90;;;;;;4997279;28;20392;-74
2022/04/22 04:23:33;;;;;;;35.10;20.38;;;9.30;71.90;;;;;;5007969;28;20597;-73
2022/04/22 04:26:02;;;;;;;34.22;21.30;;;9.20;72.90;;;;;;4999080;28;20434;-74
2022/04/22 04:28:27;;;;;;;35.00;21.47;;;9.20;72.90;;;;;;4996240;28;20483;-74
2022/04/22 04:30:54;;;;;;;33.97;21.02;;;9.20;75.10;;;;;;4997180;28;20797;-74
2022/04/22 04:33:21;;;;;;;36.42;21.92;;;9.20;74.50;;;;;;4999497;28;20775;-75
2022/04/22 04:35:50;;;;;;;37.17;22.35;;;9.20;74.10;;;;;;4998950;28;20405;-74
2022/04/22 04:38:17;;;;;;;35.65;21.70;;;9.20;74.40;;;;;;4993582;28;20775;-72
2022/04/22 04:40:45;;;;;;;38.65;22.05;;;9.30;74.40;;;;;;4992563;28;20409;-72
2022/04/22 04:43:11;;;;;;;36.67;22.90;;;9.40;73.70;;;;;;4992337;28;20397;-72
2022/04/22 04:45:37;;;;;;;39.10;23.17;;;9.30;73.90;;;;;;4996111;28;20424;-74
2022/04/22 04:48:03;;;;;;;34.75;22.17;;;9.40;73.20;;;;;;4997964;28;20441;-73
2022/04/22 04:50:30;;;;;;;36.75;22.17;;;9.40;72.80;;;;;;5000775;28;20547;-72
2022/04/22 04:52:56;;;;;;;37.58;21.85;;;9.40;74.40;;;;;;4991458;28;20398;-74
2022/04/22 04:55:22;;;;;;;41.75;23.67;;;9.40;74.00;;;;;;4999538;28;20403;-73
2022/04/22 04:57:48;;;;;;;41.10;22.00;;;9.50;72.00;;;;;;5008248;28;20406;-74
2022/04/22 05:00:14;;;;;;;37.30;22.40;;;9.60;70.10;;;;;;5013790;28;20407;-75
2022/04/22 05:02:39;;;;;;;41.22;22.65;;;9.70;69.80;;;;;;5007971;28;20443;-74
2022/04/22 05:05:06;;;;;;;39.33;23.38;;;9.60;70.90;;;;;;4996654;28;20468;-74
2022/04/22 05:07:55;;;;;;;41.50;24.10;;;9.50;72.50;;;;;;5004342;28;20421;-74
2022/04/22 05:10:20;;;;;;;40.05;23.17;;;9.50;72.70;;;;;;5001972;28;20412;-74
2022/04/22 05:12:47;;;;;;;39.77;24.00;;;9.60;71.90;;;;;;4992916;28;20564;-72
2022/04/22 05:15:13;;;;;;;42.35;22.85;;;9.70;70.10;;;;;;5009219;28;20409;-72
2022/04/22 05:17:41;;;;;;;39.45;22.85;;;9.90;67.50;;;;;;4994211;28;20438;-72
2022/04/22 05:20:08;;;;;;;38.25;22.40;;;9.90;69.10;;;;;;4999862;28;20915;-72
2022/04/22 05:22:34;;;;;;;37.63;22.83;;;10.00;69.20;;;;;;4995235;28;20861;-74
2022/04/22 05:24:59;;;;;;;35.70;22.40;;;9.90;68.00;;;;;;4994329;28;20499;-72
2022/04/22 05:27:25;;;;;;;39.47;24.17;;;10.00;67.50;;;;;;5007220;28;20418;-72
2022/04/22 05:32:37;;;;;;;37.15;22.88;;;10.10;65.10;;;;;;4996819;28;20986;-75
2022/04/22 05:35:08;;;;;;;38.75;24.67;;;10.10;65.00;;;;;;5001551;28;20445;-75
2022/04/22 05:37:50;;;;;;;40.38;25.30;;;10.20;65.60;;;;;;5001402;28;20492;-72
2022/04/22 05:40:19;;;;;;;40.72;23.55;;;10.20;66.50;;;;;;5005049;28;20426;-74
2022/04/22 05:42:46;;;;;;;38.13;23.35;;;10.30;65.10;;;;;;5002555;28;20433;-77
2022/04/22 05:45:14;;;;;;;40.00;23.60;;;10.40;65.40;;;;;;5009992;28;20437;-77
2022/04/22 05:47:39;;;;;;;35.95;22.55;;;10.50;62.60;;;;;;5014237;28;20863;-74
2022/04/22 05:50:07;;;;;;;38.77;23.37;;;10.60;62.40;;;;;;5000808;28;20500;-75
2022/04/22 05:52:33;;;;;;;35.28;21.35;;;10.80;58.60;;;;;;4995561;28;20437;-73
2022/04/22 05:55:03;;;;;;;39.47;23.25;;;10.90;58.70;;;;;;4990992;28;20470;-74
2022/04/22 05:57:33;;;;;;;38.83;23.73;;;10.90;59.30;;;;;;4995092;28;20497;-73
2022/04/22 06:00:00;;;;;;;37.42;22.60;;;11.00;57.50;;;;;;4994604;28;20462;-73
2022/04/22 06:02:27;;;;;;;37.92;22.52;;;11.10;59.20;;;;;;4997668;28;20943;-72
2022/04/22 06:04:53;;;;;;;37.63;22.95;;;11.10;59.20;;;;;;4992034;28;20414;-72
2022/04/22 06:07:19;;;;;;;36.92;23.15;;;11.10;56.00;;;;;;4992076;28;20414;-73
2022/04/22 06:12:29;;;;;;;37.17;22.95;;;11.30;56.30;;;;;;4984434;28;20985;-74
2022/04/22 06:14:56;;;;;;;34.13;23.20;;;11.30;55.70;;;;;;4998305;28;20394;-72
2022/04/22 06:17:21;;;;;;;35.60;22.77;;;11.40;56.30;;;;;;4993118;28;20508;-73
2022/04/22 06:19:47;;;;;;;37.17;23.20;;;11.50;54.80;;;;;;4997750;28;20501;-72
2022/04/22 06:22:12;;;;;;;34.17;21.90;;;11.60;53.60;;;;;;4991584;28;20418;-71
2022/04/22 06:24:38;;;;;;;39.15;23.52;;;11.60;53.80;;;;;;4987868;28;20425;-72
2022/04/22 06:27:04;;;;;;;37.25;23.95;;;11.60;55.60;;;;;;4988186;28;20491;-74
2022/04/22 06:29:29;;;;;;;35.53;23.33;;;11.60;55.30;;;;;;4986333;28;20408;-73
2022/04/22 06:31:55;;;;;;;36.75;22.77;;;11.60;54.50;;;;;;4997596;28;20406;-74
2022/04/22 06:34:22;;;;;;;36.17;23.03;;;11.50;54.30;;;;;;4989339;28;20899;-74
2022/04/22 06:36:48;;;;;;;36.08;23.30;;;11.40;54.40;;;;;;4993981;28;20421;-73
2022/04/22 06:39:14;;;;;;;35.92;24.70;;;11.30;56.80;;;;;;4992549;28;20406;-73
2022/04/22 06:47:10;;;;;;;37.35;24.50;;;11.50;56.50;;;;;;4996350;28;20759;-72
2022/04/22 06:49:35;;;;;;;37.63;24.02;;;11.70;55.50;;;;;;4996503;28;20414;-73
2022/04/22 06:52:01;;;;;;;39.80;25.27;;;11.80;55.10;;;;;;4985422;28;20397;-73
2022/04/22 06:54:27;;;;;;;43.25;25.02;;;11.90;52.00;;;;;;4987644;28;20930;-72
2022/04/22 06:56:53;;;;;;;35.97;23.52;;;12.00;51.20;;;;;;4991493;28;20414;-72
2022/04/22 06:59:21;;;;;;;40.25;24.40;;;12.10;51.50;;;;;;4990104;28;20410;-72
2022/04/22 07:01:47;;;;;;;37.97;23.93;;;12.20;51.40;;;;;;4996284;28;20516;-72
2022/04/22 07:04:14;;;;;;;37.95;23.48;;;12.30;48.30;;;;;;4998869;28;20429;-72
2022/04/22 07:06:41;;;;;;;38.38;24.30;;;12.50;46.70;;;;;;4987715;28;20407;-72
2022/04/22 07:09:07;;;;;;;36.63;24.10;;;12.50;46.50;;;;;;4983145;28;20407;-71
2022/04/22 07:11:35;;;;;;;37.72;23.73;;;12.60;45.90;;;;;;4986036;28;20892;-73
2022/04/22 07:14:01;;;;;;;34.80;23.77;;;12.80;45.50;;;;;;4990914;28;20773;-74
2022/04/22 07:16:28;;;;;;;37.22;24.88;;;12.80;44.80;;;;;;4994527;28;20771;-73
2022/04/22 07:18:53;;;;;;;37.78;24.90;;;12.80;45.10;;;;;;4992839;28;20417;-73
2022/04/22 07:21:20;;;;;;;36.20;24.25;;;12.90;45.20;;;;;;5001626;28;20403;-73
2022/04/22 07:23:46;;;;;;;36.92;24.10;;;13.10;42.60;;;;;;4992820;28;20493;-76
2022/04/22 07:26:11;;;;;;;33.97;23.00;;;13.30;42.40;;;;;;4993395;28;20402;-76
2022/04/22 07:28:38;;;;;;;42.42;24.40;;;13.30;42.00;;;;;;4992103;28;20495;-76
2022/04/22 07:31:04;;;;;;;38.58;24.70;;;13.40;41.70;;;;;;4998572;28;20429;-76
2022/04/22 07:33:32;;;;;;;37.13;23.53;;;13.40;41.20;;;;;;4999355;28;20445;-73
2022/04/22 07:35:58;;;;;;;34.17;22.70;;;13.50;41.80;;;;;;4990422;28;20505;-75
2022/04/22 07:38:24;;;;;;;32.03;22.00;;;13.60;39.90;;;;;;4996190;28;20414;-75
2022/04/22 07:40:51;;;;;;;33.17;22.08;;;13.70;38.60;;;;;;4992354;28;20418;-75
2022/04/22 07:48:52;;;;;;;32.28;21.80;;;14.10;36.10;;;;;;4991563;28;20563;-75
2022/04/22 07:51:18;;;;;;;30.40;20.92;;;14.10;36.00;;;;;;4989846;28;20410;-75
2022/04/22 07:53:43;;;;;;;30.75;20.70;;;14.10;34.70;;;;;;4984624;28;20415;-76
2022/04/22 07:56:09;;;;;;;30.93;20.13;;;13.80;36.20;;;;;;4989508;28;20414;-73
2022/04/22 07:58:36;;;;;;;28.73;19.63;;;13.70;37.50;;;;;;4992928;28;20394;-78
2022/04/22 08:01:03;;;;;;;28.05;19.20;;;13.70;37.80;;;;;;4986490;28;20418;-73
2022/04/22 08:03:28;;;;;;;26.60;18.88;;;14.00;36.10;;;;;;4989948;28;20419;-73
2022/04/22 08:05:54;;;;;;;25.83;17.90;;;14.30;33.20;;;;;;4989974;28;20484;-73
2022/04/22 08:08:20;;;;;;;25.25;17.10;;;14.50;33.10;;;;;;4988571;28;20485;-74
2022/04/22 08:10:45;;;;;;;21.90;16.67;;;14.70;30.80;;;;;;4990884;28;20907;-74
2022/04/22 08:13:11;;;;;;;22.37;16.17;;;14.80;30.40;;;;;;4993847;28;20402;-73
2022/04/22 08:15:37;;;;;;;23.30;16.00;;;15.00;28.30;;;;;;4990031;28;20402;-73
2022/04/22 08:18:04;;;;;;;23.77;15.70;;;15.10;29.20;;;;;;4988155;28;20438;-73
2022/04/22 08:20:32;;;;;;;22.25;15.50;;;15.00;29.20;;;;;;4990052;28;20394;-73
2022/04/22 08:23:01;;;;;;;20.08;15.23;;;15.20;29.50;;;;;;4990739;28;21854;-72
2022/04/22 08:25:27;;;;;;;20.60;14.55;;;15.20;28.20;;;;;;4992843;28;20406;-72
2022/04/22 08:27:53;;;;;;;19.95;13.80;;;15.20;26.70;;;;;;4991578;28;20930;-73
2022/04/22 08:30:19;;;;;;;16.98;12.88;;;15.20;25.90;;;;;;4988584;28;20907;-73
2022/04/22 08:32:45;;;;;;;16.42;11.82;;;15.20;26.00;;;;;;4987374;28;20397;-73
2022/04/22 08:35:11;;;;;;;17.30;12.03;;;15.40;24.90;;;;;;4992595;28;20395;-73
2022/04/22 08:37:37;;;;;;;20.20;12.80;;;15.60;24.70;;;;;;4992266;28;20398;-73
2022/04/22 08:40:06;;;;;;;20.55;11.57;;;15.70;24.70;;;;;;4991589;28;20410;-74
2022/04/22 08:42:35;;;;;;;16.48;12.23;;;15.70;23.80;;;;;;4992690;28;20737;-73
2022/04/22 08:45:00;;;;;;;18.52;12.85;;;15.40;25.20;;;;;;4992598;28;20406;-73
2022/04/22 08:50:16;;;;;;;17.90;12.77;;;15.40;25.90;;;;;;4992209;28;21877;-73
2022/04/22 08:52:43;;;;;;;18.63;13.00;;;15.10;26.40;;;;;;4989146;28;20442;-72
2022/04/22 08:55:10;;;;;;;17.75;12.90;;;15.10;25.90;;;;;;4989267;28;20404;-72
2022/04/22 08:57:36;;;;;;;18.98;13.38;;;15.10;26.80;;;;;;5000297;28;20510;-72
2022/04/22 09:00:07;;;;;;;18.95;12.50;;;15.20;27.00;;;;;;5001849;28;21051;-73
2022/04/22 09:02:33;;;;;;;15.27;11.82;;;15.40;25.80;;;;;;4998481;28;20502;-73
2022/04/22 09:04:59;;;;;;;16.17;11.40;;;15.40;25.10;;;;;;4991882;28;20831;-73
2022/04/22 09:07:26;;;;;;;17.42;12.00;;;15.50;27.10;;;;;;4998558;28;20422;-73
2022/04/22 09:09:52;;;;;;;19.70;12.30;;;15.70;24.40;;;;;;4996334;28;20400;-73
2022/04/22 09:12:24;;;;;;;18.27;12.27;;;15.80;22.10;;;;;;4992251;28;20394;-73
2022/04/22 09:14:56;;;;;;;16.25;12.02;;;15.90;22.70;;;;;;4999771;28;20429;-73
2022/04/22 09:17:30;;;;;;;17.77;11.60;;;15.90;22.40;;;;;;4990204;28;20962;-72
2022/04/22 09:19:57;;;;;;;17.20;11.45;;;16.00;22.60;;;;;;4991357;28;20439;-74
2022/04/22 09:22:29;;;;;;;16.63;11.50;;;16.00;22.80;;;;;;4990742;28;20421;-72
2022/04/22 09:24:59;;;;;;;15.23;11.05;;;16.10;22.90;;;;;;4991888;28;20442;-73
2022/04/22 09:27:37;;;;;;;18.63;11.27;;;16.10;22.20;;;;;;4989291;28;20418;-72
2022/04/22 09:30:08;;;;;;;14.35;11.18;;;16.10;22.20;;;;;;4990985;28;20398;-73
2022/04/22 09:32:38;;;;;;;15.45;10.77;;;16.00;21.50;;;;;;4991283;28;20406;-73
2022/04/22 09:35:10;;;;;;;14.13;10.57;;;16.10;22.30;;;;;;4990595;28;20431;-72
2022/04/22 09:43:33;;;;;;;19.52;11.20;;;16.00;21.80;;;;;;4994449;28;20433;-73
2022/04/22 09:45:59;;;;;;;30.05;11.20;;;16.30;22.50;;;;;;4993317;28;20490;-74
2022/04/22 09:48:25;;;;;;;15.90;11.23;;;16.40;20.70;;;;;;4993629;28;20402;-72
2022/04/22 09:50:55;;;;;;;14.40;10.70;;;16.40;20.10;;;;;;4989546;28;20415;-73
2022/04/22 09:53:33;;;;;;;18.58;10.38;;;16.50;20.00;;;;;;4992913;28;20457;-74
2022/04/22 09:56:08;;;;;;;18.37;10.73;;;16.50;19.10;;;;;;4994268;28;20491;-73
2022/04/22 09:58:36;;;;;;;15.70;11.07;;;16.60;20.20;;;;;;4991568;28;20917;-74
2022/04/22 10:01:05;;;;;;;19.95;11.30;;;16.70;19.50;;;;;;4994694;28;20400;-74
2022/04/22 10:03:33;;;;;;;19.07;10.13;;;16.80;19.00;;;;;;4995719;28;20398;-75
2022/04/22 10:06:01;;;;;;;14.52;10.00;;;17.10;18.40;;;;;;4993652;28;20481;-73
2022/04/22 10:08:30;;;;;;;13.90;9.65;;;17.20;18.60;;;;;;4989650;28;20823;-73
2022/04/22 10:10:58;;;;;;;12.77;10.05;;;17.30;17.20;;;;;;4993446;28;20905;-73
2022/04/22 10:13:30;;;;;;;15.00;9.13;;;17.20;18.60;;;;;;4991124;28;20415;-72
2022/04/22 10:15:56;;;;;;;16.63;11.30;;;17.10;17.70;;;;;;5002925;28;20984;-72
2022/04/22 10:18:23;;;;;;;18.37;10.30;;;16.90;18.50;;;;;;4990338;28;20493;-74
2022/04/22 10:20:50;;;;;;;14.93;9.95;;;16.80;18.60;;;;;;4993123;28;20481;-72
2022/04/22 10:23:15;;;;;;;13.65;9.30;;;16.80;17.70;;;;;;4995534;28;20398;-73
2022/04/22 10:25:41;;;;;;;14.32;9.80;;;16.70;17.90;;;;;;4991400;28;20821;-74
2022/04/22 10:28:09;;;;;;;15.77;9.73;;;16.80;18.40;;;;;;4993113;28;20414;-73
2022/04/22 10:30:35;;;;;;;12.63;9.57;;;16.80;18.90;;;;;;4992329;28;20422;-75
2022/04/22 10:33:02;;;;;;;15.07;10.15;;;16.70;18.50;;;;;;5005412;28;20413;-72
2022/04/22 10:35:40;;;;;;;19.88;9.68;;;16.40;18.50;;;;;;5007021;28;20438;-76
2022/04/22 10:38:29;;;;;;;14.40;10.90;;;16.20;19.40;;;;;;5013857;28;20398;-74
2022/04/22 10:40:54;;;;;;;13.90;9.90;;;16.30;19.30;;;;;;5000761;28;20399;-74
2022/04/22 10:43:24;;;;;;;12.47;10.40;;;16.30;19.60;;;;;;5000067;28;20400;-76
2022/04/22 10:48:39;;;;;;;19.75;12.45;;;16.40;20.10;;;;;;5004853;28;20421;-75
2022/04/22 10:51:06;;;;;;;16.23;11.93;;;16.40;19.30;;;;;;5010680;28;20390;-73
2022/04/22 10:53:39;;;;;;;16.98;12.30;;;16.50;20.60;;;;;;5020818;28;20397;-73
2022/04/22 10:56:28;;;;;;;15.95;12.27;;;16.70;19.30;;;;;;5024315;28;20398;-74
2022/04/22 10:59:15;;;;;;;19.98;12.50;;;16.80;18.80;;;;;;5017841;28;20460;-74
2022/04/22 11:01:42;;;;;;;19.73;11.20;;;17.00;18.20;;;;;;5014425;28;20396;-74
2022/04/22 11:04:18;;;;;;;17.80;10.47;;;17.10;18.20;;;;;;5003012;28;20506;-74
2022/04/22 11:06:43;;;;;;;16.75;11.10;;;17.30;17.90;;;;;;5012656;28;20413;-74
2022/04/22 11:09:09;;;;;;;15.03;10.83;;;17.50;16.70;;;;;;5010308;28;20447;-75
2022/04/22 11:11:41;;;;;;;18.80;10.80;;;17.70;15.70;;;;;;5010054;28;20470;-75
2022/04/22 11:14:25;;;;;;;16.50;11.07;;;17.80;16.00;;;;;;5000420;28;20496;-75
2022/04/22 11:16:52;;;;;;;18.57;10.77;;;17.90;16.10;;;;;;5008749;28;20468;-73
2022/04/22 11:19:17;;;;;;;13.63;10.20;;;17.90;16.40;;;;;;4996273;28;20699;-74
2022/04/22 11:21:50;;;;;;;12.50;10.47;;;18.10;14.90;;;;;;5002207;28;20480;-73
2022/04/22 11:24:26;;;;;;;17.02;10.98;;;18.00;15.40;;;;;;5000761;28;20418;-73
2022/04/22 11:26:53;;;;;;;16.73;9.70;;;18.10;15.50;;;;;;5010262;28;20441;-75
2022/04/22 11:29:19;;;;;;;12.15;9.65;;;18.40;14.40;;;;;;5003559;28;20498;-76
2022/04/22 11:32:16;;;;;;;14.73;10.18;;;18.50;13.90;;;;;;5000347;28;20412;-74
2022/04/22 11:34:46;;;;;;;18.05;9.90;;;18.50;14.80;;;;;;5001515;28;20391;-74
2022/04/22 11:37:20;;;;;;;16.33;10.15;;;18.70;14.60;;;;;;5002773;28;20397;-74
2022/04/22 11:39:48;;;;;;;14.07;9.07;;;18.90;14.30;;;;;;5009329;28;20399;-72
2022/04/22 11:42:15;;;;;;;13.73;8.70;;;19.10;13.60;;;;;;5008047;28;20405;-73
2022/04/22 11:44:41;;;;;;;11.20;8.50;;;19.20;12.80;;;;;;4993092;28;20429;-75
2022/04/22 11:47:07;;;;;;;11.25;8.20;;;19.20;12.90;;;;;;4997182;28;20574;-75
2022/04/22 11:49:32;;;;;;;9.07;7.67;;;19.20;11.80;;;;;;4998377;28;20434;-74
2022/04/22 11:52:00;;;;;;;12.73;8.43;;;19.20;12.30;;;;;;5000172;28;20434;-75
2022/04/22 11:54:26;;;;;;;11.95;7.95;;;19.30;12.60;;;;;;4999647;28;20414;-75
2022/04/22 11:56:53;;;;;;;10.98;8.10;;;19.40;12.10;;;;;;4990464;28;20398;-74
2022/04/22 11:59:22;;;;;;;13.98;8.50;;;19.50;11.60;;;;;;4989757;28;20398;-73
2022/04/22 12:10:03;;;;;;;12.20;8.80;;;18.80;13.00;;;;;;4996107;28;20576;-75
2022/04/22 12:12:31;;;;;;;12.82;8.93;;;18.80;13.50;;;;;;4996107;28;20478;-74
2022/04/22 12:15:04;;;;;;;12.05;9.02;;;18.60;13.70;;;;;;4995235;28;20399;-74
2022/04/22 12:17:30;;;;;;;13.30;9.67;;;18.70;14.20;;;;;;4994298;28;20402;-72
2022/04/22 12:19:56;;;;;;;18.83;10.17;;;18.90;14.40;;;;;;4995689;28;20991;-78
2022/04/22 12:22:24;;;;;;;15.73;10.70;;;18.80;14.90;;;;;;4996094;28;20918;-73
2022/04/22 12:25:09;;;;;;;17.90;11.33;;;19.00;15.50;;;;;;4999820;28;20774;-76
2022/04/22 12:27:35;;;;;;;18.13;11.63;;;18.90;16.00;;;;;;4994293;28;20422;-74
2022/04/22 12:30:03;;;;;;;14.63;11.25;;;18.70;15.80;;;;;;4987108;28;20412;-73
2022/04/22 12:32:28;;;;;;;18.60;11.68;;;18.40;15.70;;;;;;4984161;28;20768;-74
2022/04/22 12:35:12;;;;;;;17.63;12.85;;;18.40;16.50;;;;;;4991689;28;20407;-74
2022/04/22 12:37:49;;;;;;;17.55;12.00;;;18.40;16.60;;;;;;4997185;28;20755;-74
2022/04/22 12:40:15;;;;;;;19.83;12.40;;;18.40;16.50;;;;;;4998925;28;20414;-74
2022/04/22 12:42:41;;;;;;;16.92;11.57;;;18.40;16.00;;;;;;5002535;28;20407;-75
2022/04/22 12:52:08;;;;;;;17.63;11.90;;;18.40;16.00;;;;;;5003429;28;20400;-76
2022/04/22 12:54:08;;;;;;;16.73;11.80;;;18.70;15.60;;;;;;4999214;28;20403;-73
2022/04/22 12:56:35;;;;;;;16.08;13.23;;;19.00;15.30;;;;;;4997311;28;20908;-72
2022/04/22 12:59:05;;;;;;;16.45;11.10;;;19.10;15.30;;;;;;4999788;28;20805;-73
2022/04/22 13:01:34;;;;;;;15.38;11.85;;;19.30;15.40;;;;;;5008741;28;20409;-74
2022/04/22 13:04:00;;;;;;;20.05;12.00;;;19.60;14.70;;;;;;5005527;28;20433;-74
2022/04/22 13:06:44;;;;;;;17.55;11.98;;;19.20;13.80;;;;;;4988904;28;20837;-74
2022/04/22 13:09:12;;;;;;;19.05;11.40;;;18.90;15.30;;;;;;4993384;28;20412;-73
2022/04/22 13:11:39;;;;;;;16.52;11.60;;;18.50;15.50;;;;;;5000765;28;20858;-73
2022/04/22 13:14:06;;;;;;;17.35;10.95;;;18.50;15.90;;;;;;5003714;28;20434;-75
2022/04/22 13:16:32;;;;;;;16.67;11.25;;;18.70;15.30;;;;;;5011824;28;20434;-75
2022/04/22 13:18:59;;;;;;;17.48;11.70;;;18.80;15.40;;;;;;4995402;28;20404;-74
2022/04/22 13:21:24;;;;;;;17.70;11.65;;;18.60;15.40;;;;;;5002640;28;20428;-74
2022/04/22 13:23:50;;;;;;;19.58;12.95;;;18.80;16.30;;;;;;4996188;28;20418;-73
2022/04/22 13:26:17;;;;;;;14.05;10.95;;;19.00;15.30;;;;;;4994322;28;20435;-74
2022/04/22 13:28:42;;;;;;;16.60;11.32;;;19.50;15.40;;;;;;5002218;28;20410;-74
2022/04/22 13:31:08;;;;;;;13.97;10.80;;;19.80;13.80;;;;;;5001275;28;20429;-74
2022/04/22 13:33:34;;;;;;;14.63;11.23;;;19.70;13.30;;;;;;4995935;28;20406;-74
2022/04/22 13:36:01;;;;;;;16.58;11.05;;;19.90;13.50;;;;;;5013373;28;20402;-74
2022/04/22 13:38:27;;;;;;;14.90;10.65;;;19.60;12.80;;;;;;5008074;28;20834;-73
2022/04/22 13:40:53;;;;;;;17.05;10.93;;;19.80;13.00;;;;;;5007477;28;20414;-74